Time;durP1;ratioP1;P1;durP2;ratioP2;P2;SDS_P1;SDS_P2;PMS_P1;PMS_P2;Temp;Humidity;BMP_temperature;BMP_pressure;BME280_temperature;BME280_humidity;BME280_pressure;Samples;Min_cycle;Max_cycle;Signal;HPM_P1;HPM_P2
2021/12/16 00:02:14;;;;;;;17.10;15.35;;;9.00;99.90;;;;;;5015065;28;20284;-64
2021/12/16 00:07:33;;;;;;;17.73;15.82;;;8.80;99.90;;;;;;5003496;28;20356;-64
2021/12/16 00:10:14;;;;;;;17.65;15.38;;;8.70;99.90;;;;;;5013359;28;20248;-65
2021/12/16 00:29:54;;;;;;;17.73;14.50;;;8.10;99.90;;;;;;5013070;28;20663;-65
2021/12/16 00:32:33;;;;;;;17.50;15.65;;;8.30;99.90;;;;;;5013023;28;20312;-65
2021/12/16 00:35:00;;;;;;;17.25;15.52;;;8.60;99.90;;;;;;5012817;28;20285;-65
2021/12/16 00:37:29;;;;;;;16.08;14.48;;;8.70;99.90;;;;;;5012817;28;20198;-63
2021/12/16 00:39:59;;;;;;;18.95;15.45;;;8.70;99.90;;;;;;5013251;28;20221;-63
2021/12/16 00:42:37;;;;;;;15.70;14.00;;;8.60;99.90;;;;;;5013157;28;20193;-63
2021/12/16 00:45:30;;;;;;;17.20;15.43;;;8.70;99.90;;;;;;5012160;28;20197;-64
2021/12/16 00:48:00;;;;;;;17.08;15.27;;;8.70;99.90;;;;;;5012880;28;20813;-63
2021/12/16 00:56:08;;;;;;;15.88;14.27;;;8.60;99.90;;;;;;5012675;28;20224;-63
2021/12/16 00:58:43;;;;;;;17.45;15.63;;;8.50;99.90;;;;;;5020180;28;20505;-63
2021/12/16 01:01:26;;;;;;;18.42;16.63;;;8.50;99.90;;;;;;5012795;28;20659;-63
2021/12/16 01:04:13;;;;;;;20.55;17.00;;;8.30;99.90;;;;;;4993108;28;20202;-64
2021/12/16 01:06:57;;;;;;;18.10;15.88;;;8.20;99.90;;;;;;5002301;28;20308;-64
2021/12/16 01:34:29;;;;;;;17.60;15.80;;;7.80;99.90;;;;;;5012917;28;20225;-64
2021/12/16 01:37:39;;;;;;;19.52;17.52;;;8.00;99.90;;;;;;5012690;28;20236;-64
2021/12/16 01:40:19;;;;;;;18.27;16.10;;;8.30;99.90;;;;;;5006955;28;20217;-64
2021/12/16 01:46:14;;;;;;;18.00;16.10;;;8.50;99.90;;;;;;5002140;28;20197;-63
2021/12/16 01:51:37;;;;;;;17.80;15.90;;;8.20;99.90;;;;;;5012675;28;20252;-63
2021/12/16 01:54:34;;;;;;;18.42;16.52;;;8.40;99.90;;;;;;5012204;28;20232;-64
2021/12/16 01:57:11;;;;;;;18.33;16.42;;;8.60;99.90;;;;;;5013540;28;20730;-63
2021/12/16 01:59:41;;;;;;;15.57;14.07;;;8.60;99.90;;;;;;5014398;28;20660;-64
2021/12/16 02:02:21;;;;;;;18.02;16.17;;;8.60;99.90;;;;;;5013098;28;20769;-64
2021/12/16 02:05:10;;;;;;;18.20;16.40;;;8.70;99.90;;;;;;5024048;28;20292;-65
2021/12/16 02:07:54;;;;;;;16.08;14.40;;;8.70;99.90;;;;;;5014626;28;20217;-64
2021/12/16 02:10:34;;;;;;;16.58;14.98;;;8.70;99.90;;;;;;4999269;28;20702;-64
2021/12/16 02:13:17;;;;;;;17.00;15.27;;;8.70;99.90;;;;;;5000712;28;20280;-64
2021/12/16 02:30:48;;;;;;;18.75;16.73;;;8.30;99.90;;;;;;5020435;23;20240;31
2021/12/16 02:33:23;;;;;;;16.17;14.48;;;8.10;99.90;;;;;;4944995;29;20223;-72
2021/12/16 02:36:01;;;;;;;16.67;14.93;;;8.10;99.90;;;;;;4936336;28;20295;-72
2021/12/16 02:38:34;;;;;;;18.67;16.77;;;8.30;99.90;;;;;;4948479;29;20199;-72
2021/12/16 02:41:02;;;;;;;19.48;17.42;;;8.40;99.90;;;;;;4947865;29;20299;-72
2021/12/16 02:49:02;;;;;;;16.85;15.18;;;8.30;99.90;;;;;;4937492;29;20665;-72
2021/12/16 02:51:35;;;;;;;17.08;15.35;;;8.40;99.90;;;;;;4937571;29;20224;-72
2021/12/16 02:54:06;;;;;;;15.40;13.85;;;8.50;99.90;;;;;;4937412;29;20222;-72
2021/12/16 02:56:35;;;;;;;16.88;14.82;;;8.70;99.90;;;;;;4937062;29;20231;-71
2021/12/16 02:59:04;;;;;;;15.93;14.27;;;8.80;99.90;;;;;;4937422;29;20284;-72
2021/12/16 03:01:35;;;;;;;16.25;14.55;;;8.90;99.90;;;;;;4936177;29;20224;-73
2021/12/16 03:04:06;;;;;;;17.75;15.95;;;8.80;99.90;;;;;;4918499;29;20228;-72
2021/12/16 03:06:35;;;;;;;18.30;16.25;;;8.80;99.90;;;;;;4926398;29;20246;-72
2021/12/16 03:09:07;;;;;;;16.48;14.75;;;8.80;99.90;;;;;;4927707;29;20307;-71
2021/12/16 03:11:44;;;;;;;16.70;14.80;;;8.80;99.90;;;;;;4935916;29;20216;-71
2021/12/16 03:14:30;;;;;;;17.90;16.20;;;8.80;99.90;;;;;;4937231;29;20227;-72
2021/12/16 03:17:12;;;;;;;14.80;13.38;;;8.80;99.90;;;;;;4936956;29;20623;-72
2021/12/16 03:19:56;;;;;;;16.58;14.93;;;8.80;99.90;;;;;;4937090;29;20200;-72
2021/12/16 03:22:44;;;;;;;17.00;15.20;;;8.90;99.90;;;;;;4936937;29;20227;-71
2021/12/16 03:25:21;;;;;;;15.10;13.60;;;8.90;99.90;;;;;;4936896;29;20748;-71
2021/12/16 03:31:11;;;;;;;18.90;15.73;;;8.80;99.90;;;;;;4882830;29;20340;-71
2021/12/16 03:33:56;;;;;;;17.88;16.08;;;8.70;99.90;;;;;;4936635;29;20239;-72
2021/12/16 03:36:29;;;;;;;16.70;15.02;;;8.60;99.90;;;;;;4936375;29;20243;-70
2021/12/16 03:39:02;;;;;;;17.15;15.35;;;8.40;99.90;;;;;;4928501;29;20654;-71
2021/12/16 03:41:34;;;;;;;16.77;15.05;;;8.30;99.90;;;;;;4936645;29;20223;-72
2021/12/16 03:44:05;;;;;;;16.30;14.63;;;8.50;99.90;;;;;;4936581;29;20235;-71
2021/12/16 03:46:36;;;;;;;15.95;14.48;;;8.60;99.90;;;;;;4935983;29;20295;-72
2021/12/16 03:49:09;;;;;;;18.98;15.27;;;8.60;99.90;;;;;;4935705;29;20730;-71
2021/12/16 03:51:42;;;;;;;16.33;14.73;;;8.70;99.90;;;;;;4936348;29;20219;-71
2021/12/16 03:54:13;;;;;;;16.80;15.15;;;8.70;99.90;;;;;;4936327;29;20234;-72
2021/12/16 03:56:44;;;;;;;16.38;14.77;;;8.60;99.90;;;;;;4935938;29;20227;-71
2021/12/16 03:59:16;;;;;;;16.27;14.50;;;8.60;99.90;;;;;;4936308;29;20623;-72
2021/12/16 04:01:44;;;;;;;16.67;15.05;;;8.50;99.90;;;;;;4933340;29;20713;-72
2021/12/16 04:04:13;;;;;;;17.77;15.85;;;8.30;99.90;;;;;;4928023;29;20295;-72
2021/12/16 04:06:42;;;;;;;15.82;14.15;;;8.40;99.90;;;;;;4935670;29;20268;-72
2021/12/16 04:09:14;;;;;;;15.50;14.00;;;8.30;99.90;;;;;;4928026;29;20320;-70
2021/12/16 04:11:50;;;;;;;18.38;16.38;;;8.40;99.90;;;;;;4936217;29;20286;-70
2021/12/16 04:14:18;;;;;;;18.55;16.75;;;8.20;99.90;;;;;;4935984;29;20228;-70
2021/12/16 04:16:49;;;;;;;18.30;16.40;;;8.30;99.90;;;;;;4923314;29;20201;-70
2021/12/16 04:19:19;;;;;;;17.92;16.20;;;8.30;99.90;;;;;;4935919;29;20196;-71
2021/12/16 04:21:52;;;;;;;17.67;15.77;;;8.30;99.90;;;;;;4935278;29;20258;-71
2021/12/16 04:24:21;;;;;;;15.95;14.30;;;8.30;99.90;;;;;;4935912;29;20204;-71
2021/12/16 04:26:53;;;;;;;16.67;15.05;;;8.20;99.90;;;;;;4935323;29;20224;-71
2021/12/16 04:29:22;;;;;;;16.55;14.80;;;8.20;99.90;;;;;;4935745;29;20315;-71
2021/12/16 04:31:53;;;;;;;18.63;16.85;;;8.00;99.90;;;;;;4935440;29;20271;-72
2021/12/16 04:34:21;;;;;;;18.77;16.85;;;7.90;99.90;;;;;;4935745;29;20215;-69
2021/12/16 04:36:50;;;;;;;15.93;14.20;;;7.90;99.90;;;;;;4933951;29;20205;-72
2021/12/16 04:39:21;;;;;;;18.90;16.80;;;8.00;99.90;;;;;;4934728;29;20231;-72
2021/12/16 04:41:53;;;;;;;19.25;15.95;;;8.20;99.90;;;;;;4924461;29;20299;-72
2021/12/16 04:44:23;;;;;;;17.70;15.80;;;8.10;99.90;;;;;;4935455;29;20196;-72
2021/12/16 04:46:51;;;;;;;18.38;15.32;;;8.10;99.90;;;;;;4935024;29;20208;-72
2021/12/16 04:49:19;;;;;;;17.38;15.60;;;8.00;99.90;;;;;;4935263;29;20701;-71
2021/12/16 04:51:49;;;;;;;17.20;15.50;;;8.00;99.90;;;;;;4935022;29;20310;-72
2021/12/16 04:54:22;;;;;;;17.98;16.15;;;8.10;99.90;;;;;;4935460;29;20615;-71
2021/12/16 04:56:54;;;;;;;17.38;15.55;;;8.10;99.90;;;;;;4934515;29;20278;-71
2021/12/16 04:59:23;;;;;;;19.05;17.15;;;8.00;99.90;;;;;;4934906;29;20619;-72
2021/12/16 05:01:53;;;;;;;17.80;15.98;;;8.00;99.90;;;;;;4934497;29;20283;-72
2021/12/16 05:04:25;;;;;;;19.75;17.60;;;8.10;99.90;;;;;;4935088;29;20199;-71
2021/12/16 05:06:53;;;;;;;16.83;15.13;;;8.00;99.90;;;;;;4934654;29;20696;-72
2021/12/16 05:09:56;;;;;;;19.50;17.50;;;7.80;99.90;;;;;;4926885;29;20260;-72
2021/12/16 05:12:22;;;;;;;19.85;17.45;;;7.70;99.90;;;;;;4934071;29;20306;-71
2021/12/16 05:14:51;;;;;;;21.63;19.42;;;7.40;99.90;;;;;;4934794;29;20650;-73
2021/12/16 05:17:27;;;;;;;24.98;20.40;;;7.20;99.90;;;;;;4934695;29;20242;-72
2021/12/16 05:20:00;;;;;;;24.92;21.45;;;7.00;99.90;;;;;;4934981;29;20196;-72
2021/12/16 05:25:23;;;;;;;20.27;18.27;;;6.80;99.90;;;;;;4933956;29;20235;-71
2021/12/16 05:27:53;;;;;;;23.10;20.63;;;7.10;99.90;;;;;;4934951;29;20228;-73
2021/12/16 05:30:21;;;;;;;22.98;20.48;;;7.30;99.90;;;;;;4934571;29;20761;-73
2021/12/16 05:32:49;;;;;;;20.20;18.02;;;7.30;99.90;;;;;;4934907;29;20251;-73
2021/12/16 05:35:20;;;;;;;23.25;19.45;;;7.20;99.90;;;;;;4934521;29;20287;-71
2021/12/16 05:37:48;;;;;;;21.13;18.85;;;7.20;99.90;;;;;;4934205;29;20246;-71
2021/12/16 05:40:23;;;;;;;22.45;20.05;;;7.30;99.90;;;;;;4926405;29;20283;-70
2021/12/16 05:42:55;;;;;;;19.98;17.80;;;7.40;99.90;;;;;;4934226;29;20653;-70
2021/12/16 05:45:24;;;;;;;19.50;17.55;;;7.60;99.90;;;;;;4933804;29;20228;-72
2021/12/16 05:47:53;;;;;;;19.60;17.30;;;7.80;99.90;;;;;;4934695;29;20613;-71
2021/12/16 05:50:22;;;;;;;20.17;18.02;;;8.10;99.90;;;;;;4934645;29;20306;-72
2021/12/16 05:52:50;;;;;;;18.08;16.27;;;8.20;99.90;;;;;;4934439;29;20287;-71
2021/12/16 05:55:19;;;;;;;19.75;17.63;;;8.40;99.90;;;;;;4934021;29;20665;-72
2021/12/16 05:57:48;;;;;;;18.92;17.02;;;8.40;99.90;;;;;;4934101;29;20696;-71
2021/12/16 06:00:20;;;;;;;18.48;16.15;;;8.30;99.90;;;;;;4933376;29;20286;-71
2021/12/16 06:02:49;;;;;;;18.33;16.40;;;8.20;99.90;;;;;;4922956;29;20256;-71
2021/12/16 06:05:18;;;;;;;20.50;18.35;;;8.20;99.90;;;;;;4923782;29;20652;-69
2021/12/16 06:07:50;;;;;;;20.20;17.60;;;8.30;99.90;;;;;;4921429;29;20267;-69
2021/12/16 06:10:50;;;;;;;20.58;17.70;;;8.20;99.90;;;;;;4909916;29;20242;-68
2021/12/16 06:13:12;;;;;;;18.48;16.67;;;7.90;99.90;;;;;;4930139;29;20295;-68
2021/12/16 06:15:57;;;;;;;21.08;18.85;;;7.60;99.90;;;;;;4929921;29;20208;-68
2021/12/16 06:26:54;;;;;;;23.80;21.20;;;6.90;99.90;;;;;;4919171;29;20218;-69
2021/12/16 06:29:22;;;;;;;22.45;20.25;;;7.00;99.90;;;;;;4916325;29;20312;-69
2021/12/16 06:31:52;;;;;;;23.02;20.58;;;7.10;99.90;;;;;;4913963;29;20995;-69
2021/12/16 06:34:20;;;;;;;22.92;18.35;;;7.10;99.90;;;;;;4932692;29;20235;-68
2021/12/16 06:36:49;;;;;;;21.77;18.17;;;7.10;99.90;;;;;;4928510;29;20217;-68
2021/12/16 06:39:17;;;;;;;20.75;18.48;;;7.20;99.90;;;;;;4924679;29;20294;-68
2021/12/16 06:41:45;;;;;;;20.60;18.38;;;7.30;99.90;;;;;;4928530;29;20224;-68
2021/12/16 06:44:19;;;;;;;22.48;18.75;;;7.30;99.90;;;;;;4932524;29;20263;-68
2021/12/16 06:46:48;;;;;;;25.10;19.83;;;7.30;99.90;;;;;;4926542;29;20327;-68
2021/12/16 06:49:21;;;;;;;20.67;18.42;;;7.20;99.90;;;;;;4924374;29;20219;-68
2021/12/16 06:51:52;;;;;;;20.02;17.95;;;7.30;99.90;;;;;;4932516;29;20266;-69
2021/12/16 06:54:26;;;;;;;22.73;19.42;;;7.40;99.90;;;;;;4932565;29;20302;-69
2021/12/16 06:57:06;;;;;;;23.05;20.67;;;7.40;99.90;;;;;;4925048;29;20244;-69
2021/12/16 06:59:39;;;;;;;23.30;20.25;;;7.30;99.90;;;;;;4921101;29;20208;-69
2021/12/16 07:02:48;;;;;;;23.13;20.08;;;7.30;99.90;;;;;;4927985;29;20208;-69
2021/12/16 07:05:21;;;;;;;22.83;19.15;;;7.30;99.90;;;;;;4920296;29;20205;-69
2021/12/16 07:07:50;;;;;;;20.58;18.52;;;7.30;99.90;;;;;;4927136;29;20238;-69
2021/12/16 07:10:19;;;;;;;23.63;21.23;;;7.20;99.90;;;;;;4923857;29;20281;-69
2021/12/16 07:12:49;;;;;;;22.95;19.63;;;7.10;99.90;;;;;;4913084;29;20211;-69
2021/12/16 07:15:21;;;;;;;23.33;20.05;;;7.20;99.90;;;;;;4913047;29;20303;-69
2021/12/16 07:17:51;;;;;;;23.50;20.90;;;7.20;99.90;;;;;;4920493;29;20224;-68
2021/12/16 07:20:23;;;;;;;21.77;19.38;;;7.20;99.90;;;;;;4913301;29;20223;-69
2021/12/16 07:22:51;;;;;;;20.23;18.05;;;7.30;99.90;;;;;;4931156;29;20243;-70
2021/12/16 07:25:19;;;;;;;21.33;19.08;;;7.30;99.90;;;;;;4931283;29;20290;-69
2021/12/16 07:27:47;;;;;;;21.15;18.45;;;7.40;99.90;;;;;;4921168;29;20319;-69
2021/12/16 07:30:17;;;;;;;21.25;18.80;;;7.40;99.90;;;;;;4921692;29;20212;-68
2021/12/16 07:32:45;;;;;;;23.25;20.73;;;7.40;99.90;;;;;;4930000;29;20278;-70
2021/12/16 07:35:16;;;;;;;22.70;19.70;;;7.40;99.90;;;;;;4932259;29;20203;-70
2021/12/16 07:37:46;;;;;;;21.02;17.98;;;7.30;99.90;;;;;;4935693;29;20705;-69
2021/12/16 07:40:17;;;;;;;21.83;19.35;;;7.20;99.90;;;;;;4928844;29;20283;-69
2021/12/16 07:42:48;;;;;;;21.10;18.90;;;7.20;99.90;;;;;;4936445;29;20243;-70
2021/12/16 07:45:18;;;;;;;21.38;18.50;;;7.10;99.90;;;;;;4935223;29;20211;-69
2021/12/16 07:47:47;;;;;;;24.08;20.58;;;7.20;99.90;;;;;;4936143;29;20245;-69
2021/12/16 07:50:15;;;;;;;26.33;19.67;;;7.10;99.90;;;;;;4936178;29;20371;-69
2021/12/16 07:52:45;;;;;;;22.17;19.83;;;7.10;99.90;;;;;;4935877;29;20224;-69
2021/12/16 07:55:15;;;;;;;25.65;19.90;;;7.10;99.90;;;;;;4936194;29;20231;-70
2021/12/16 07:57:43;;;;;;;20.90;18.70;;;7.10;99.90;;;;;;4936281;29;20255;-70
2021/12/16 08:00:15;;;;;;;23.95;20.70;;;7.20;99.90;;;;;;4936236;29;20243;-70
2021/12/16 08:02:44;;;;;;;24.98;20.90;;;7.10;99.90;;;;;;4936212;29;20673;-69
2021/12/16 08:05:12;;;;;;;26.35;23.63;;;7.00;99.90;;;;;;4936075;29;20219;-69
2021/12/16 08:07:40;;;;;;;27.42;24.02;;;7.00;99.90;;;;;;4935520;29;20242;-69
2021/12/16 08:10:16;;;;;;;23.83;21.33;;;7.10;99.90;;;;;;4932293;29;20298;-69
2021/12/16 08:12:44;;;;;;;23.20;20.80;;;7.10;99.90;;;;;;4936146;29;20227;-70
2021/12/16 08:15:14;;;;;;;24.88;22.15;;;7.20;99.90;;;;;;4935848;29;20238;-70
2021/12/16 08:17:42;;;;;;;25.27;22.38;;;7.20;99.90;;;;;;4935660;29;20282;-70
2021/12/16 08:20:16;;;;;;;26.17;23.38;;;7.30;99.90;;;;;;4935462;29;20220;-71
2021/12/16 08:22:44;;;;;;;26.70;22.88;;;7.40;99.90;;;;;;4935899;29;20234;-70
2021/12/16 08:25:14;;;;;;;26.45;21.50;;;7.30;99.90;;;;;;4935919;29;20235;-71
2021/12/16 08:27:43;;;;;;;23.95;20.90;;;7.40;99.90;;;;;;4935328;29;20231;-70
2021/12/16 08:30:15;;;;;;;24.63;21.90;;;7.40;99.90;;;;;;4935516;29;20231;-71
2021/12/16 08:32:44;;;;;;;23.35;19.45;;;7.50;99.90;;;;;;4937342;29;20200;-72
2021/12/16 08:35:12;;;;;;;25.02;22.25;;;7.60;99.90;;;;;;4935418;29;20255;-71
2021/12/16 08:37:41;;;;;;;25.90;21.85;;;7.60;99.90;;;;;;4935360;29;20227;-71
2021/12/16 08:40:14;;;;;;;24.23;21.63;;;7.80;99.90;;;;;;4927916;29;20287;-72
2021/12/16 08:42:42;;;;;;;21.75;19.60;;;7.80;99.90;;;;;;4936036;29;20247;-72
2021/12/16 08:45:12;;;;;;;21.08;18.83;;;7.80;99.90;;;;;;4918880;29;20234;-72
2021/12/16 08:47:41;;;;;;;22.77;18.35;;;8.00;99.90;;;;;;4935799;29;20216;-73
2021/12/16 08:50:11;;;;;;;20.55;18.42;;;7.90;99.90;;;;;;4935586;29;20781;-72
2021/12/16 08:52:39;;;;;;;21.98;18.17;;;7.80;99.90;;;;;;4936090;29;20200;-72
2021/12/16 08:55:09;;;;;;;20.50;18.30;;;7.80;99.90;;;;;;4936046;29;20224;-71
2021/12/16 08:57:39;;;;;;;19.08;17.23;;;7.80;99.90;;;;;;4935375;29;20625;-72
2021/12/16 09:00:13;;;;;;;20.80;18.70;;;7.80;99.90;;;;;;4935567;29;20196;-72
2021/12/16 09:02:41;;;;;;;20.50;18.15;;;7.80;99.90;;;;;;4935577;29;20224;-72
2021/12/16 09:05:09;;;;;;;23.52;20.92;;;7.60;99.90;;;;;;4935366;29;20579;-72
2021/12/16 09:07:38;;;;;;;21.30;18.90;;;7.50;99.90;;;;;;4934664;29;20199;-72
2021/12/16 09:10:10;;;;;;;22.65;19.90;;;7.40;99.90;;;;;;4921409;29;20232;-72
2021/12/16 09:13:00;;;;;;;23.48;20.77;;;7.40;99.90;;;;;;4916444;29;20235;-71
2021/12/16 09:15:28;;;;;;;24.85;20.60;;;7.40;99.90;;;;;;4916557;29;20656;-72
2021/12/16 09:17:56;;;;;;;21.48;19.23;;;7.50;99.90;;;;;;4915954;29;20287;-72
2021/12/16 09:20:25;;;;;;;22.83;20.50;;;8.00;99.90;;;;;;4922561;29;20716;-71
2021/12/16 09:22:53;;;;;;;20.98;18.88;;;8.70;99.90;;;;;;4935015;29;20287;-70
2021/12/16 09:25:21;;;;;;;24.55;19.65;;;9.10;99.90;;;;;;4934906;29;20243;-70
2021/12/16 09:27:51;;;;;;;23.85;18.45;;;9.00;99.90;;;;;;4934661;29;20282;-72
2021/12/16 09:30:21;;;;;;;21.17;18.95;;;8.70;99.90;;;;;;4934922;29;20254;-71
2021/12/16 09:32:51;;;;;;;21.08;18.92;;;8.70;99.90;;;;;;4934917;29;20219;-70
2021/12/16 09:35:21;;;;;;;20.98;18.67;;;8.50;99.90;;;;;;4935040;29;20204;-71
2021/12/16 09:37:49;;;;;;;20.95;19.00;;;8.30;99.90;;;;;;4929859;29;20723;-71
2021/12/16 09:40:21;;;;;;;20.88;18.67;;;8.00;99.90;;;;;;4923464;29;20295;-71
2021/12/16 09:42:52;;;;;;;22.25;19.73;;;8.00;99.90;;;;;;4915893;29;20240;-69
2021/12/16 09:45:21;;;;;;;21.13;18.65;;;8.00;99.90;;;;;;4915700;29;20279;-71
2021/12/16 09:47:51;;;;;;;22.55;20.17;;;8.40;99.90;;;;;;4914677;29;20288;-68
2021/12/16 09:50:23;;;;;;;20.25;17.58;;;9.00;99.90;;;;;;4915672;29;20235;-71
2021/12/16 09:52:51;;;;;;;19.88;17.88;;;9.50;99.90;;;;;;4922818;29;20655;-71
2021/12/16 09:55:20;;;;;;;20.67;18.23;;;9.70;99.90;;;;;;4934582;29;20227;-70
2021/12/16 09:57:50;;;;;;;18.50;16.55;;;9.60;99.90;;;;;;4934465;29;20234;-71
2021/12/16 10:00:22;;;;;;;21.90;18.35;;;9.60;99.90;;;;;;4917515;29;20725;-71
2021/12/16 10:02:51;;;;;;;20.67;18.48;;;9.30;99.90;;;;;;4934683;29;20255;-71
2021/12/16 10:05:20;;;;;;;20.27;18.23;;;9.10;99.90;;;;;;4934487;29;20204;-71
2021/12/16 10:07:48;;;;;;;19.00;17.20;;;9.00;99.90;;;;;;4930417;29;20224;-72
2021/12/16 10:10:18;;;;;;;22.38;19.98;;;8.90;99.90;;;;;;4930370;29;20200;-72
2021/12/16 10:12:50;;;;;;;22.10;19.75;;;8.90;99.90;;;;;;4934315;29;20227;-71
2021/12/16 10:18:11;;;;;;;21.63;19.45;;;8.70;99.90;;;;;;4933957;29;20308;-70
2021/12/16 10:20:43;;;;;;;22.17;19.77;;;8.50;99.90;;;;;;4934547;29;20223;-71
2021/12/16 10:23:21;;;;;;;23.60;20.25;;;8.50;99.90;;;;;;4934335;29;20206;-72
2021/12/16 10:25:52;;;;;;;21.35;19.10;;;8.50;99.90;;;;;;4934245;29;20234;-71
2021/12/16 10:28:23;;;;;;;21.52;19.35;;;8.40;99.90;;;;;;4933563;29;20283;-71
2021/12/16 10:30:58;;;;;;;22.77;20.40;;;8.50;99.90;;;;;;4933974;29;20713;-71
2021/12/16 10:33:34;;;;;;;22.25;19.85;;;8.50;99.90;;;;;;4933921;29;20199;-71
2021/12/16 10:36:11;;;;;;;24.02;20.88;;;8.40;99.90;;;;;;4934343;29;20239;-71
2021/12/16 10:38:42;;;;;;;24.30;21.77;;;8.30;99.90;;;;;;4932690;29;20711;-71
2021/12/16 10:41:16;;;;;;;24.33;19.83;;;8.30;99.90;;;;;;4934231;29;20223;-71
2021/12/16 10:43:47;;;;;;;21.33;19.13;;;8.40;99.90;;;;;;4925509;29;20224;-71
2021/12/16 10:46:18;;;;;;;24.35;21.75;;;8.30;99.90;;;;;;4934155;29;20247;-71
2021/12/16 10:48:48;;;;;;;21.92;19.73;;;8.30;99.90;;;;;;4933924;29;20208;-71
2021/12/16 10:51:23;;;;;;;25.35;22.65;;;8.30;99.90;;;;;;4933986;29;20231;-71
2021/12/16 10:54:03;;;;;;;22.48;20.25;;;8.30;99.90;;;;;;4933810;29;20195;-71
2021/12/16 10:56:38;;;;;;;23.83;21.40;;;8.40;99.90;;;;;;4934084;29;20211;-71
2021/12/16 10:59:09;;;;;;;23.73;20.95;;;8.40;99.90;;;;;;4937134;29;20223;-71
2021/12/16 11:01:44;;;;;;;23.50;20.83;;;8.40;99.90;;;;;;4937149;29;20224;-71
2021/12/16 11:04:15;;;;;;;23.25;20.80;;;8.40;99.90;;;;;;4937389;29;20665;-71
2021/12/16 11:06:48;;;;;;;25.92;22.52;;;8.60;99.90;;;;;;4937471;29;20200;-71
2021/12/16 11:09:55;;;;;;;22.77;20.50;;;8.70;99.90;;;;;;4937439;29;20295;-71
2021/12/16 11:12:39;;;;;;;22.23;19.88;;;8.70;99.90;;;;;;4934711;29;20306;-72
2021/12/16 11:15:11;;;;;;;23.77;19.58;;;8.70;99.90;;;;;;4937559;29;20235;-72
2021/12/16 11:17:43;;;;;;;22.65;18.98;;;8.80;99.90;;;;;;4937410;29;20195;-71
2021/12/16 11:20:25;;;;;;;21.95;19.65;;;8.90;99.90;;;;;;4937252;29;20235;-69
2021/12/16 11:22:57;;;;;;;21.70;18.17;;;8.90;99.90;;;;;;4937054;29;20232;-71
2021/12/16 11:25:28;;;;;;;23.10;20.58;;;8.80;99.90;;;;;;4937218;29;20740;-71
2021/12/16 11:28:07;;;;;;;23.50;19.33;;;8.70;99.90;;;;;;4937081;29;20286;-71
2021/12/16 11:30:40;;;;;;;22.55;20.27;;;8.70;99.90;;;;;;4936999;29;20243;-72
2021/12/16 11:33:26;;;;;;;22.48;19.98;;;8.80;99.90;;;;;;4936940;29;20224;-69
2021/12/16 11:36:02;;;;;;;24.60;19.67;;;8.90;99.90;;;;;;4918185;29;20666;-71
2021/12/16 11:38:36;;;;;;;22.88;20.55;;;8.90;99.90;;;;;;4921732;29;20668;-72
2021/12/16 11:41:28;;;;;;;25.13;19.25;;;8.90;99.90;;;;;;4929003;29;20242;-71
2021/12/16 11:44:14;;;;;;;23.10;20.42;;;8.90;99.90;;;;;;4936641;29;20628;-72
2021/12/16 11:46:49;;;;;;;25.30;21.20;;;8.80;99.90;;;;;;4936963;29;20794;-71
2021/12/16 11:49:22;;;;;;;24.67;21.00;;;8.80;99.90;;;;;;4936441;29;20295;-71
2021/12/16 11:51:56;;;;;;;26.02;22.98;;;8.70;99.90;;;;;;4936720;29;20224;-72
2021/12/16 11:54:26;;;;;;;22.50;20.10;;;8.70;99.90;;;;;;4936482;29;20208;-71
2021/12/16 11:56:59;;;;;;;23.30;20.88;;;8.80;99.90;;;;;;4936750;29;20204;-71
2021/12/16 11:59:30;;;;;;;24.00;21.48;;;8.80;99.90;;;;;;4936326;29;20203;-71
2021/12/16 12:02:00;;;;;;;22.30;20.02;;;8.80;99.90;;;;;;4936532;29;20224;-71
2021/12/16 12:04:34;;;;;;;23.83;21.25;;;8.80;99.90;;;;;;4935987;29;20204;-71
2021/12/16 12:07:10;;;;;;;25.33;22.00;;;8.80;99.90;;;;;;4936143;29;20744;-72
2021/12/16 12:09:42;;;;;;;26.83;23.00;;;8.80;99.90;;;;;;4933022;29;20673;-71
2021/12/16 12:12:11;;;;;;;26.20;22.58;;;8.80;99.90;;;;;;4931834;29;20266;-72
2021/12/16 12:14:41;;;;;;;24.55;21.88;;;8.80;99.90;;;;;;4936004;29;20673;-71
2021/12/16 12:17:11;;;;;;;27.73;21.38;;;8.80;99.90;;;;;;4936214;29;20272;-71
2021/12/16 12:19:47;;;;;;;23.70;21.10;;;8.90;99.90;;;;;;4935933;29;20255;-72
2021/12/16 12:22:16;;;;;;;24.98;22.27;;;8.80;99.90;;;;;;4935958;29;20257;-71
2021/12/16 12:24:46;;;;;;;25.88;22.55;;;8.90;99.90;;;;;;4935964;29;20237;-71
2021/12/16 12:27:17;;;;;;;30.48;27.30;;;8.90;99.90;;;;;;4936259;29;20792;-71
2021/12/16 12:29:48;;;;;;;29.58;26.50;;;8.90;99.90;;;;;;4936202;29;20200;-71
2021/12/16 12:32:19;;;;;;;25.55;22.40;;;8.90;99.90;;;;;;4935465;29;20243;-71
2021/12/16 12:34:51;;;;;;;30.05;25.98;;;8.90;99.90;;;;;;4935860;29;20227;-71
2021/12/16 12:37:23;;;;;;;35.92;32.28;;;8.90;99.90;;;;;;4935969;29;20264;-69
2021/12/16 12:39:54;;;;;;;27.38;24.27;;;9.00;99.90;;;;;;4931278;29;20717;-71
2021/12/16 12:42:22;;;;;;;24.75;22.08;;;9.00;99.90;;;;;;4932963;29;20224;-72
2021/12/16 12:44:50;;;;;;;28.10;24.35;;;9.00;99.90;;;;;;4935879;29;20721;-71
2021/12/16 12:47:22;;;;;;;28.30;23.85;;;8.90;99.90;;;;;;4935863;29;20204;-72
2021/12/16 12:49:51;;;;;;;26.73;23.92;;;8.90;99.90;;;;;;4936577;29;20176;-71
2021/12/16 12:52:22;;;;;;;27.20;24.38;;;8.90;99.90;;;;;;4936418;29;20248;-71
2021/12/16 12:55:00;;;;;;;27.17;22.70;;;9.00;99.90;;;;;;4936008;29;20262;-72
2021/12/16 12:57:31;;;;;;;31.83;23.63;;;9.00;99.90;;;;;;4936881;29;20286;-71
2021/12/16 13:00:00;;;;;;;25.15;22.35;;;9.20;99.90;;;;;;4936838;29;20246;-71
2021/12/16 13:02:33;;;;;;;25.33;22.40;;;9.10;99.90;;;;;;4936499;29;20287;-71
2021/12/16 13:05:09;;;;;;;26.27;23.08;;;9.00;99.90;;;;;;4936305;29;20251;-71
2021/12/16 13:07:38;;;;;;;26.95;24.15;;;9.10;99.90;;;;;;4936014;29;20641;-71
2021/12/16 13:10:11;;;;;;;25.85;22.45;;;9.00;99.90;;;;;;4929643;29;20208;-71
2021/12/16 13:12:44;;;;;;;26.50;23.58;;;9.00;99.90;;;;;;4934311;29;20216;-71
2021/12/16 13:15:25;;;;;;;26.50;23.75;;;8.90;99.90;;;;;;4935127;29;20203;-72
2021/12/16 13:23:56;;;;;;;31.33;23.60;;;9.00;99.90;;;;;;4934825;29;20244;-71
2021/12/16 13:26:39;;;;;;;26.23;23.27;;;9.00;99.90;;;;;;4934521;29;20224;-71
2021/12/16 13:29:15;;;;;;;31.52;24.77;;;9.00;99.90;;;;;;4934680;29;20234;-71
2021/12/16 13:31:52;;;;;;;25.52;22.75;;;9.00;99.90;;;;;;4933197;29;20270;-70
2021/12/16 13:34:36;;;;;;;27.05;22.77;;;8.90;99.90;;;;;;4934583;29;20215;-72
2021/12/16 13:37:20;;;;;;;26.67;23.80;;;9.00;99.90;;;;;;4934842;29;20648;-70
2021/12/16 13:39:52;;;;;;;26.55;23.50;;;9.00;99.90;;;;;;4930917;29;20192;-71
2021/12/16 13:42:21;;;;;;;27.30;24.38;;;9.00;99.90;;;;;;4931394;29;20266;-71
2021/12/16 13:45:00;;;;;;;30.17;25.92;;;9.00;99.90;;;;;;4934009;29;20607;-69
2021/12/16 13:47:44;;;;;;;27.20;23.90;;;9.10;99.90;;;;;;4934544;29;20200;-72
2021/12/16 14:05:43;;;;;;;28.48;24.45;;;9.20;99.90;;;;;;4934145;29;20188;-71
2021/12/16 14:08:26;;;;;;;26.35;22.73;;;9.20;99.90;;;;;;4934217;29;20204;-69
2021/12/16 14:10:58;;;;;;;30.58;24.63;;;9.20;99.90;;;;;;4922989;29;20235;-71
2021/12/16 14:16:43;;;;;;;29.80;25.75;;;9.20;99.90;;;;;;4915291;29;20200;-70
2021/12/16 14:25:11;;;;;;;31.17;27.58;;;9.20;99.90;;;;;;4934103;29;20243;-71
2021/12/16 14:39:14;;;;;;;32.15;26.42;;;9.10;99.90;;;;;;5023136;28;20257;-65
2021/12/16 14:41:52;;;;;;;26.38;23.45;;;9.10;99.90;;;;;;5029684;28;20262;-64
2021/12/16 14:47:36;;;;;;;30.05;24.52;;;9.10;99.90;;;;;;5054824;28;20246;-64
2021/12/16 14:50:05;;;;;;;26.63;23.27;;;9.10;99.90;;;;;;5043610;28;20723;-65
2021/12/16 14:52:34;;;;;;;27.90;24.63;;;9.20;99.90;;;;;;5034536;28;20262;-65
2021/12/16 14:55:06;;;;;;;32.22;25.10;;;9.30;99.90;;;;;;5034571;28;20630;-64
2021/12/16 14:57:38;;;;;;;28.90;25.80;;;9.30;99.90;;;;;;5034672;28;20224;-65
2021/12/16 15:00:16;;;;;;;32.70;25.38;;;9.40;99.90;;;;;;5034712;28;20201;-65
2021/12/16 15:02:47;;;;;;;33.30;27.65;;;9.40;99.90;;;;;;5034568;28;20281;-64
2021/12/16 15:05:26;;;;;;;33.50;25.80;;;9.40;99.90;;;;;;5033762;28;20197;-65
2021/12/16 15:07:54;;;;;;;31.17;26.05;;;9.40;99.90;;;;;;5034744;28;20235;-65
2021/12/16 15:10:23;;;;;;;28.13;24.75;;;9.40;99.90;;;;;;5043114;28;20270;-64
2021/12/16 15:13:01;;;;;;;33.80;23.50;;;9.50;99.90;;;;;;5054509;28;20254;-65
2021/12/16 15:15:36;;;;;;;25.85;23.10;;;9.60;99.90;;;;;;5054271;28;20234;-64
2021/12/16 15:40:57;;;;;;;22.95;20.55;;;9.80;99.90;;;;;;5045672;28;20275;-65
2021/12/16 15:43:32;;;;;;;25.40;22.02;;;9.90;99.90;;;;;;5053732;28;20732;-64
2021/12/16 15:46:03;;;;;;;23.30;20.88;;;9.80;99.90;;;;;;5053366;28;20248;-65
2021/12/16 15:48:33;;;;;;;24.77;22.17;;;9.80;99.90;;;;;;5053517;28;20220;-65